sensor_id;sensor_type;location;lat;lon;timestamp;P1;durP1;ratioP1;P2;durP2;ratioP2
577;SDS011;275;48.492;9.214;2023-08-30T00:01:36;12.40;;;11.40;;
577;SDS011;275;48.492;9.214;2023-08-30T00:04:03;14.20;;;13.07;;
577;SDS011;275;48.492;9.214;2023-08-30T00:06:30;12.80;;;11.90;;
577;SDS011;275;48.492;9.214;2023-08-30T00:08:57;12.97;;;11.90;;
577;SDS011;275;48.492;9.214;2023-08-30T00:11:24;12.70;;;11.90;;
577;SDS011;275;48.492;9.214;2023-08-30T00:13:52;13.60;;;12.70;;
577;SDS011;275;48.492;9.214;2023-08-30T00:16:19;12.70;;;11.80;;
577;SDS011;275;48.492;9.214;2023-08-30T00:18:46;12.70;;;11.83;;
577;SDS011;275;48.492;9.214;2023-08-30T00:21:12;12.93;;;12.03;;
577;SDS011;275;48.492;9.214;2023-08-30T00:23:41;13.27;;;12.37;;
577;SDS011;275;48.492;9.214;2023-08-30T00:26:08;12.93;;;12.00;;
577;SDS011;275;48.492;9.214;2023-08-30T00:28:35;12.03;;;11.13;;
577;SDS011;275;48.492;9.214;2023-08-30T00:31:03;11.07;;;10.37;;
577;SDS011;275;48.492;9.214;2023-08-30T00:33:30;11.47;;;10.73;;
577;SDS011;275;48.492;9.214;2023-08-30T00:35:57;13.07;;;11.80;;
577;SDS011;275;48.492;9.214;2023-08-30T00:38:25;11.83;;;11.03;;
577;SDS011;275;48.492;9.214;2023-08-30T00:40:53;12.60;;;11.50;;
577;SDS011;275;48.492;9.214;2023-08-30T00:43:19;11.90;;;11.03;;
577;SDS011;275;48.492;9.214;2023-08-30T00:45:46;11.80;;;10.90;;
577;SDS011;275;48.492;9.214;2023-08-30T00:48:16;11.93;;;11.03;;
577;SDS011;275;48.492;9.214;2023-08-30T00:50:45;12.33;;;11.53;;
577;SDS011;275;48.492;9.214;2023-08-30T00:53:12;12.57;;;11.57;;
577;SDS011;275;48.492;9.214;2023-08-30T00:55:39;13.10;;;12.30;;
577;SDS011;275;48.492;9.214;2023-08-30T00:58:07;12.47;;;11.57;;
577;SDS011;275;48.492;9.214;2023-08-30T01:00:36;12.60;;;11.60;;
577;SDS011;275;48.492;9.214;2023-08-30T01:03:04;12.57;;;11.67;;
577;SDS011;275;48.492;9.214;2023-08-30T01:05:34;13.90;;;12.80;;
577;SDS011;275;48.492;9.214;2023-08-30T01:08:01;14.80;;;13.87;;
577;SDS011;275;48.492;9.214;2023-08-30T01:10:31;14.80;;;13.90;;
577;SDS011;275;48.492;9.214;2023-08-30T01:13:08;15.60;;;14.53;;
577;SDS011;275;48.492;9.214;2023-08-30T01:15:38;15.83;;;14.70;;
577;SDS011;275;48.492;9.214;2023-08-30T01:18:06;16.73;;;15.63;;
577;SDS011;275;48.492;9.214;2023-08-30T01:20:37;17.47;;;16.33;;
577;SDS011;275;48.492;9.214;2023-08-30T01:23:05;19.17;;;17.93;;
577;SDS011;275;48.492;9.214;2023-08-30T01:25:40;20.00;;;18.63;;
577;SDS011;275;48.492;9.214;2023-08-30T01:28:13;20.20;;;18.90;;
577;SDS011;275;48.492;9.214;2023-08-30T01:30:42;18.80;;;17.50;;
577;SDS011;275;48.492;9.214;2023-08-30T01:33:10;20.27;;;18.93;;
577;SDS011;275;48.492;9.214;2023-08-30T01:35:39;20.20;;;18.87;;
577;SDS011;275;48.492;9.214;2023-08-30T01:38:06;20.27;;;18.23;;
577;SDS011;275;48.492;9.214;2023-08-30T01:40:35;19.20;;;18.00;;
577;SDS011;275;48.492;9.214;2023-08-30T01:43:03;20.90;;;19.53;;
577;SDS011;275;48.492;9.214;2023-08-30T01:45:33;19.37;;;18.07;;
577;SDS011;275;48.492;9.214;2023-08-30T01:48:02;18.47;;;17.27;;
577;SDS011;275;48.492;9.214;2023-08-30T01:50:30;18.40;;;17.20;;
577;SDS011;275;48.492;9.214;2023-08-30T01:52:58;22.80;;;21.10;;
577;SDS011;275;48.492;9.214;2023-08-30T01:55:26;19.90;;;18.60;;
577;SDS011;275;48.492;9.214;2023-08-30T01:57:54;18.43;;;17.03;;
577;SDS011;275;48.492;9.214;2023-08-30T02:00:21;19.67;;;18.37;;
577;SDS011;275;48.492;9.214;2023-08-30T02:02:49;19.23;;;17.83;;
577;SDS011;275;48.492;9.214;2023-08-30T02:05:16;19.43;;;18.03;;
577;SDS011;275;48.492;9.214;2023-08-30T02:07:43;18.63;;;17.43;;
577;SDS011;275;48.492;9.214;2023-08-30T02:10:17;19.40;;;18.00;;
577;SDS011;275;48.492;9.214;2023-08-30T02:13:06;17.30;;;16.10;;
577;SDS011;275;48.492;9.214;2023-08-30T02:15:35;18.13;;;16.77;;
577;SDS011;275;48.492;9.214;2023-08-30T02:18:04;17.60;;;16.33;;
577;SDS011;275;48.492;9.214;2023-08-30T02:20:32;16.17;;;15.07;;
577;SDS011;275;48.492;9.214;2023-08-30T02:22:58;17.17;;;15.80;;
577;SDS011;275;48.492;9.214;2023-08-30T02:25:25;16.90;;;15.60;;
577;SDS011;275;48.492;9.214;2023-08-30T02:27:52;18.30;;;16.90;;
577;SDS011;275;48.492;9.214;2023-08-30T02:30:19;17.33;;;15.90;;
577;SDS011;275;48.492;9.214;2023-08-30T02:32:46;17.00;;;15.90;;
577;SDS011;275;48.492;9.214;2023-08-30T02:35:14;18.73;;;17.40;;
577;SDS011;275;48.492;9.214;2023-08-30T02:37:41;17.63;;;16.20;;
577;SDS011;275;48.492;9.214;2023-08-30T02:40:08;16.33;;;15.13;;
577;SDS011;275;48.492;9.214;2023-08-30T02:42:36;15.67;;;14.60;;
577;SDS011;275;48.492;9.214;2023-08-30T02:45:03;15.77;;;14.60;;
577;SDS011;275;48.492;9.214;2023-08-30T02:47:30;15.77;;;14.63;;
577;SDS011;275;48.492;9.214;2023-08-30T02:49:57;15.57;;;14.47;;
577;SDS011;275;48.492;9.214;2023-08-30T02:52:25;16.27;;;15.17;;
577;SDS011;275;48.492;9.214;2023-08-30T02:54:52;15.10;;;14.07;;
577;SDS011;275;48.492;9.214;2023-08-30T02:57:18;16.80;;;14.83;;
577;SDS011;275;48.492;9.214;2023-08-30T02:59:45;15.53;;;14.40;;
577;SDS011;275;48.492;9.214;2023-08-30T03:02:12;15.67;;;14.47;;
577;SDS011;275;48.492;9.214;2023-08-30T03:04:39;15.53;;;14.40;;
577;SDS011;275;48.492;9.214;2023-08-30T03:07:05;15.80;;;14.70;;
577;SDS011;275;48.492;9.214;2023-08-30T03:09:34;16.47;;;15.17;;
577;SDS011;275;48.492;9.214;2023-08-30T03:12:01;16.50;;;15.20;;
577;SDS011;275;48.492;9.214;2023-08-30T03:14:27;15.43;;;14.37;;
577;SDS011;275;48.492;9.214;2023-08-30T03:16:54;14.37;;;13.37;;
577;SDS011;275;48.492;9.214;2023-08-30T03:19:21;14.00;;;13.10;;
577;SDS011;275;48.492;9.214;2023-08-30T03:21:48;13.77;;;12.73;;
577;SDS011;275;48.492;9.214;2023-08-30T03:24:15;15.20;;;14.10;;
577;SDS011;275;48.492;9.214;2023-08-30T03:26:44;14.37;;;13.37;;
577;SDS011;275;48.492;9.214;2023-08-30T03:29:10;15.00;;;13.80;;
577;SDS011;275;48.492;9.214;2023-08-30T03:31:37;15.30;;;14.20;;
577;SDS011;275;48.492;9.214;2023-08-30T03:34:04;15.70;;;14.70;;
577;SDS011;275;48.492;9.214;2023-08-30T03:36:31;16.53;;;15.40;;
577;SDS011;275;48.492;9.214;2023-08-30T03:38:57;18.17;;;16.87;;
577;SDS011;275;48.492;9.214;2023-08-30T03:41:24;17.77;;;16.57;;
577;SDS011;275;48.492;9.214;2023-08-30T03:43:52;15.30;;;14.30;;
577;SDS011;275;48.492;9.214;2023-08-30T03:46:19;15.13;;;14.03;;
577;SDS011;275;48.492;9.214;2023-08-30T03:48:46;15.10;;;14.10;;
577;SDS011;275;48.492;9.214;2023-08-30T03:51:13;14.93;;;13.83;;
577;SDS011;275;48.492;9.214;2023-08-30T03:53:39;15.60;;;14.50;;
577;SDS011;275;48.492;9.214;2023-08-30T03:56:06;14.57;;;13.57;;
577;SDS011;275;48.492;9.214;2023-08-30T03:58:33;15.20;;;14.10;;
577;SDS011;275;48.492;9.214;2023-08-30T04:01:01;15.10;;;13.80;;
577;SDS011;275;48.492;9.214;2023-08-30T04:03:28;16.27;;;15.17;;
577;SDS011;275;48.492;9.214;2023-08-30T04:05:55;16.10;;;14.90;;
577;SDS011;275;48.492;9.214;2023-08-30T04:08:22;15.73;;;14.37;;
577;SDS011;275;48.492;9.214;2023-08-30T04:10:51;14.67;;;13.53;;
577;SDS011;275;48.492;9.214;2023-08-30T04:13:19;15.10;;;14.10;;
577;SDS011;275;48.492;9.214;2023-08-30T04:15:46;16.87;;;15.57;;
577;SDS011;275;48.492;9.214;2023-08-30T04:18:14;16.80;;;15.60;;
577;SDS011;275;48.492;9.214;2023-08-30T04:20:43;15.63;;;14.53;;
577;SDS011;275;48.492;9.214;2023-08-30T04:23:10;14.53;;;13.53;;
577;SDS011;275;48.492;9.214;2023-08-30T04:25:37;14.70;;;13.60;;
577;SDS011;275;48.492;9.214;2023-08-30T04:28:04;14.77;;;13.77;;
577;SDS011;275;48.492;9.214;2023-08-30T04:30:31;16.60;;;15.30;;
577;SDS011;275;48.492;9.214;2023-08-30T04:32:58;15.87;;;14.57;;
577;SDS011;275;48.492;9.214;2023-08-30T04:35:29;15.67;;;14.47;;
577;SDS011;275;48.492;9.214;2023-08-30T04:37:57;15.60;;;14.50;;
577;SDS011;275;48.492;9.214;2023-08-30T04:40:24;15.67;;;14.47;;
577;SDS011;275;48.492;9.214;2023-08-30T04:42:50;14.87;;;13.77;;
577;SDS011;275;48.492;9.214;2023-08-30T04:45:17;16.10;;;14.75;;
577;SDS011;275;48.492;9.214;2023-08-30T04:47:44;14.73;;;13.63;;
577;SDS011;275;48.492;9.214;2023-08-30T04:50:11;16.07;;;14.97;;
577;SDS011;275;48.492;9.214;2023-08-30T04:52:39;17.58;;;16.38;;
577;SDS011;275;48.492;9.214;2023-08-30T04:55:07;17.25;;;15.95;;
577;SDS011;275;48.492;9.214;2023-08-30T04:57:35;17.37;;;16.07;;
577;SDS011;275;48.492;9.214;2023-08-30T05:00:02;17.13;;;15.93;;
577;SDS011;275;48.492;9.214;2023-08-30T05:02:30;17.93;;;16.63;;
577;SDS011;275;48.492;9.214;2023-08-30T05:04:57;17.60;;;16.40;;
577;SDS011;275;48.492;9.214;2023-08-30T05:07:24;17.63;;;16.40;;
577;SDS011;275;48.492;9.214;2023-08-30T05:09:52;16.07;;;14.87;;
577;SDS011;275;48.492;9.214;2023-08-30T05:12:19;16.77;;;15.37;;
577;SDS011;275;48.492;9.214;2023-08-30T05:14:46;16.23;;;15.13;;
577;SDS011;275;48.492;9.214;2023-08-30T05:17:13;15.87;;;14.50;;
577;SDS011;275;48.492;9.214;2023-08-30T05:19:39;16.87;;;15.67;;
577;SDS011;275;48.492;9.214;2023-08-30T05:22:06;16.33;;;15.17;;
577;SDS011;275;48.492;9.214;2023-08-30T05:24:33;15.30;;;14.30;;
577;SDS011;275;48.492;9.214;2023-08-30T05:27:01;13.55;;;12.45;;
577;SDS011;275;48.492;9.214;2023-08-30T05:29:28;14.37;;;13.20;;
577;SDS011;275;48.492;9.214;2023-08-30T05:31:55;13.17;;;12.27;;
577;SDS011;275;48.492;9.214;2023-08-30T05:34:22;13.33;;;12.43;;
577;SDS011;275;48.492;9.214;2023-08-30T05:36:50;13.70;;;12.70;;
577;SDS011;275;48.492;9.214;2023-08-30T05:39:18;13.43;;;12.53;;
577;SDS011;275;48.492;9.214;2023-08-30T05:41:45;13.13;;;12.13;;
577;SDS011;275;48.492;9.214;2023-08-30T05:44:13;12.47;;;11.60;;
577;SDS011;275;48.492;9.214;2023-08-30T05:46:42;15.20;;;14.03;;
577;SDS011;275;48.492;9.214;2023-08-30T05:49:09;14.00;;;12.90;;
577;SDS011;275;48.492;9.214;2023-08-30T05:51:35;13.47;;;12.57;;
577;SDS011;275;48.492;9.214;2023-08-30T05:54:02;13.83;;;12.87;;
577;SDS011;275;48.492;9.214;2023-08-30T05:56:30;13.33;;;12.20;;
577;SDS011;275;48.492;9.214;2023-08-30T05:58:56;14.13;;;12.87;;
577;SDS011;275;48.492;9.214;2023-08-30T06:01:24;14.20;;;13.20;;
577;SDS011;275;48.492;9.214;2023-08-30T06:03:51;13.87;;;12.87;;
577;SDS011;275;48.492;9.214;2023-08-30T06:06:19;13.67;;;12.47;;
577;SDS011;275;48.492;9.214;2023-08-30T06:08:46;12.63;;;11.60;;
577;SDS011;275;48.492;9.214;2023-08-30T06:11:13;12.93;;;11.93;;
577;SDS011;275;48.492;9.214;2023-08-30T06:13:40;13.90;;;12.80;;
577;SDS011;275;48.492;9.214;2023-08-30T06:16:07;15.10;;;13.90;;
577;SDS011;275;48.492;9.214;2023-08-30T06:18:35;14.80;;;13.70;;
577;SDS011;275;48.492;9.214;2023-08-30T06:21:03;14.40;;;13.40;;
577;SDS011;275;48.492;9.214;2023-08-30T06:23:30;14.90;;;13.80;;
577;SDS011;275;48.492;9.214;2023-08-30T06:25:57;14.23;;;13.13;;
577;SDS011;275;48.492;9.214;2023-08-30T06:28:24;14.17;;;13.07;;
577;SDS011;275;48.492;9.214;2023-08-30T06:30:51;13.90;;;12.87;;
577;SDS011;275;48.492;9.214;2023-08-30T06:33:18;13.03;;;12.13;;
577;SDS011;275;48.492;9.214;2023-08-30T06:35:48;12.27;;;11.37;;
577;SDS011;275;48.492;9.214;2023-08-30T06:38:15;13.37;;;12.27;;
577;SDS011;275;48.492;9.214;2023-08-30T06:40:43;11.83;;;11.03;;
577;SDS011;275;48.492;9.214;2023-08-30T06:43:10;11.30;;;10.30;;
577;SDS011;275;48.492;9.214;2023-08-30T06:45:38;12.60;;;11.70;;
577;SDS011;275;48.492;9.214;2023-08-30T06:48:05;12.00;;;11.10;;
577;SDS011;275;48.492;9.214;2023-08-30T06:50:32;11.73;;;10.83;;
577;SDS011;275;48.492;9.214;2023-08-30T06:53:00;12.20;;;11.30;;
577;SDS011;275;48.492;9.214;2023-08-30T06:55:28;12.67;;;11.67;;
577;SDS011;275;48.492;9.214;2023-08-30T06:57:55;11.00;;;10.20;;
577;SDS011;275;48.492;9.214;2023-08-30T07:00:21;10.30;;;9.50;;
577;SDS011;275;48.492;9.214;2023-08-30T07:02:48;10.43;;;9.53;;
577;SDS011;275;48.492;9.214;2023-08-30T07:05:15;10.87;;;10.07;;
577;SDS011;275;48.492;9.214;2023-08-30T07:07:42;9.83;;;9.03;;
577;SDS011;275;48.492;9.214;2023-08-30T07:10:10;10.00;;;9.00;;
577;SDS011;275;48.492;9.214;2023-08-30T07:12:37;9.40;;;8.60;;
577;SDS011;275;48.492;9.214;2023-08-30T07:15:04;8.60;;;7.90;;
577;SDS011;275;48.492;9.214;2023-08-30T07:17:32;9.47;;;8.70;;
577;SDS011;275;48.492;9.214;2023-08-30T07:19:58;8.73;;;8.03;;
577;SDS011;275;48.492;9.214;2023-08-30T07:22:26;9.47;;;8.60;;
577;SDS011;275;48.492;9.214;2023-08-30T07:24:53;8.83;;;8.03;;
577;SDS011;275;48.492;9.214;2023-08-30T07:27:21;8.20;;;7.40;;
577;SDS011;275;48.492;9.214;2023-08-30T07:29:48;6.60;;;6.00;;
577;SDS011;275;48.492;9.214;2023-08-30T07:32:15;5.07;;;4.57;;
577;SDS011;275;48.492;9.214;2023-08-30T07:34:41;6.83;;;6.00;;
577;SDS011;275;48.492;9.214;2023-08-30T07:37:16;6.40;;;4.90;;
577;SDS011;275;48.492;9.214;2023-08-30T07:39:45;6.03;;;4.73;;
577;SDS011;275;48.492;9.214;2023-08-30T07:42:12;5.13;;;4.63;;
577;SDS011;275;48.492;9.214;2023-08-30T07:44:41;4.53;;;4.07;;
577;SDS011;275;48.492;9.214;2023-08-30T07:47:07;4.00;;;3.00;;
577;SDS011;275;48.492;9.214;2023-08-30T07:49:34;4.83;;;4.10;;
577;SDS011;275;48.492;9.214;2023-08-30T07:52:01;4.47;;;3.90;;
577;SDS011;275;48.492;9.214;2023-08-30T07:54:28;6.63;;;4.37;;
577;SDS011;275;48.492;9.214;2023-08-30T07:56:56;7.27;;;5.03;;
577;SDS011;275;48.492;9.214;2023-08-30T07:59:23;5.90;;;4.30;;
577;SDS011;275;48.492;9.214;2023-08-30T08:01:51;5.53;;;4.17;;
577;SDS011;275;48.492;9.214;2023-08-30T08:04:18;4.50;;;3.90;;
577;SDS011;275;48.492;9.214;2023-08-30T08:06:45;4.17;;;3.77;;
577;SDS011;275;48.492;9.214;2023-08-30T08:09:12;5.53;;;3.90;;
577;SDS011;275;48.492;9.214;2023-08-30T08:11:40;5.47;;;4.97;;
577;SDS011;275;48.492;9.214;2023-08-30T08:14:08;5.97;;;5.37;;
577;SDS011;275;48.492;9.214;2023-08-30T08:16:36;7.53;;;5.90;;
577;SDS011;275;48.492;9.214;2023-08-30T08:19:04;7.40;;;5.53;;
577;SDS011;275;48.492;9.214;2023-08-30T08:21:31;7.17;;;6.47;;
577;SDS011;275;48.492;9.214;2023-08-30T08:23:58;6.63;;;6.03;;
577;SDS011;275;48.492;9.214;2023-08-30T08:26:24;6.83;;;6.10;;
577;SDS011;275;48.492;9.214;2023-08-30T08:28:51;7.10;;;6.40;;
577;SDS011;275;48.492;9.214;2023-08-30T08:31:19;8.33;;;4.97;;
577;SDS011;275;48.492;9.214;2023-08-30T08:33:49;4.70;;;4.30;;
577;SDS011;275;48.492;9.214;2023-08-30T08:36:18;5.30;;;4.60;;
577;SDS011;275;48.492;9.214;2023-08-30T08:38:46;5.00;;;4.50;;
577;SDS011;275;48.492;9.214;2023-08-30T08:41:14;6.13;;;4.20;;
577;SDS011;275;48.492;9.214;2023-08-30T08:43:42;5.10;;;4.60;;
577;SDS011;275;48.492;9.214;2023-08-30T08:46:10;5.87;;;5.27;;
577;SDS011;275;48.492;9.214;2023-08-30T08:48:39;7.90;;;7.20;;
577;SDS011;275;48.492;9.214;2023-08-30T08:51:09;6.77;;;6.07;;
577;SDS011;275;48.492;9.214;2023-08-30T08:53:38;5.47;;;4.77;;
577;SDS011;275;48.492;9.214;2023-08-30T08:56:05;6.17;;;4.70;;
577;SDS011;275;48.492;9.214;2023-08-30T08:58:34;5.93;;;5.33;;
577;SDS011;275;48.492;9.214;2023-08-30T09:01:03;5.70;;;5.00;;
577;SDS011;275;48.492;9.214;2023-08-30T09:03:30;7.57;;;4.90;;
577;SDS011;275;48.492;9.214;2023-08-30T09:06:00;4.97;;;4.33;;
577;SDS011;275;48.492;9.214;2023-08-30T09:08:29;6.57;;;4.93;;
577;SDS011;275;48.492;9.214;2023-08-30T09:10:57;5.73;;;3.90;;
577;SDS011;275;48.492;9.214;2023-08-30T09:13:24;5.00;;;3.43;;
577;SDS011;275;48.492;9.214;2023-08-30T09:15:51;7.30;;;4.50;;
577;SDS011;275;48.492;9.214;2023-08-30T09:18:18;4.90;;;3.53;;
577;SDS011;275;48.492;9.214;2023-08-30T09:20:45;4.90;;;4.10;;
577;SDS011;275;48.492;9.214;2023-08-30T09:23:18;4.30;;;3.70;;
577;SDS011;275;48.492;9.214;2023-08-30T09:25:46;6.13;;;4.03;;
577;SDS011;275;48.492;9.214;2023-08-30T09:28:15;4.83;;;3.63;;
577;SDS011;275;48.492;9.214;2023-08-30T09:30:42;4.33;;;3.50;;
577;SDS011;275;48.492;9.214;2023-08-30T09:33:14;4.30;;;3.33;;
577;SDS011;275;48.492;9.214;2023-08-30T09:35:45;5.20;;;3.93;;
577;SDS011;275;48.492;9.214;2023-08-30T09:38:17;4.37;;;3.73;;
577;SDS011;275;48.492;9.214;2023-08-30T09:40:45;4.80;;;3.73;;
577;SDS011;275;48.492;9.214;2023-08-30T09:43:12;4.00;;;3.47;;
577;SDS011;275;48.492;9.214;2023-08-30T09:45:41;4.63;;;3.60;;
577;SDS011;275;48.492;9.214;2023-08-30T09:48:08;4.40;;;3.20;;
577;SDS011;275;48.492;9.214;2023-08-30T09:50:36;4.80;;;4.10;;
577;SDS011;275;48.492;9.214;2023-08-30T09:53:06;4.20;;;3.60;;
577;SDS011;275;48.492;9.214;2023-08-30T09:55:35;4.30;;;2.90;;
577;SDS011;275;48.492;9.214;2023-08-30T09:58:03;5.37;;;4.27;;
577;SDS011;275;48.492;9.214;2023-08-30T10:00:30;5.50;;;3.53;;
577;SDS011;275;48.492;9.214;2023-08-30T10:03:00;5.37;;;4.10;;
577;SDS011;275;48.492;9.214;2023-08-30T10:05:27;5.07;;;3.20;;
577;SDS011;275;48.492;9.214;2023-08-30T10:07:55;5.53;;;3.07;;
577;SDS011;275;48.492;9.214;2023-08-30T10:10:22;4.00;;;3.10;;
577;SDS011;275;48.492;9.214;2023-08-30T10:12:49;5.40;;;3.70;;
577;SDS011;275;48.492;9.214;2023-08-30T10:15:18;4.20;;;3.10;;
577;SDS011;275;48.492;9.214;2023-08-30T10:17:47;4.90;;;3.10;;
577;SDS011;275;48.492;9.214;2023-08-30T10:20:19;4.57;;;3.10;;
577;SDS011;275;48.492;9.214;2023-08-30T10:22:47;4.37;;;2.83;;
577;SDS011;275;48.492;9.214;2023-08-30T10:25:17;4.77;;;2.83;;
577;SDS011;275;48.492;9.214;2023-08-30T10:27:48;4.47;;;3.30;;
577;SDS011;275;48.492;9.214;2023-08-30T10:30:16;5.10;;;3.47;;
577;SDS011;275;48.492;9.214;2023-08-30T10:32:45;4.23;;;3.37;;
577;SDS011;275;48.492;9.214;2023-08-30T10:35:12;4.40;;;3.30;;
577;SDS011;275;48.492;9.214;2023-08-30T10:37:42;4.90;;;2.93;;
577;SDS011;275;48.492;9.214;2023-08-30T10:40:19;4.50;;;3.90;;
577;SDS011;275;48.492;9.214;2023-08-30T10:42:47;5.00;;;3.17;;
577;SDS011;275;48.492;9.214;2023-08-30T10:45:24;4.53;;;3.87;;
577;SDS011;275;48.492;9.214;2023-08-30T10:47:53;6.67;;;3.43;;
577;SDS011;275;48.492;9.214;2023-08-30T10:50:27;5.83;;;4.13;;
577;SDS011;275;48.492;9.214;2023-08-30T10:52:56;4.47;;;3.60;;
577;SDS011;275;48.492;9.214;2023-08-30T10:55:23;5.13;;;3.40;;
577;SDS011;275;48.492;9.214;2023-08-30T10:57:57;4.80;;;3.93;;
577;SDS011;275;48.492;9.214;2023-08-30T11:00:27;4.60;;;4.03;;
577;SDS011;275;48.492;9.214;2023-08-30T11:02:54;5.57;;;4.60;;
577;SDS011;275;48.492;9.214;2023-08-30T11:05:22;5.10;;;3.43;;
577;SDS011;275;48.492;9.214;2023-08-30T11:07:49;6.57;;;3.70;;
577;SDS011;275;48.492;9.214;2023-08-30T11:10:18;4.50;;;3.73;;
577;SDS011;275;48.492;9.214;2023-08-30T11:12:46;4.07;;;3.20;;
577;SDS011;275;48.492;9.214;2023-08-30T11:15:14;4.27;;;3.50;;
577;SDS011;275;48.492;9.214;2023-08-30T11:17:41;3.90;;;3.43;;
577;SDS011;275;48.492;9.214;2023-08-30T11:20:09;5.23;;;3.67;;
577;SDS011;275;48.492;9.214;2023-08-30T11:22:37;5.20;;;3.63;;
577;SDS011;275;48.492;9.214;2023-08-30T11:25:05;5.57;;;3.90;;
577;SDS011;275;48.492;9.214;2023-08-30T11:27:36;4.50;;;3.60;;
577;SDS011;275;48.492;9.214;2023-08-30T11:30:03;4.37;;;3.00;;
577;SDS011;275;48.492;9.214;2023-08-30T11:32:34;4.53;;;3.50;;
577;SDS011;275;48.492;9.214;2023-08-30T11:35:02;5.10;;;3.40;;
577;SDS011;275;48.492;9.214;2023-08-30T11:37:30;4.37;;;2.90;;
577;SDS011;275;48.492;9.214;2023-08-30T11:39:57;4.87;;;3.27;;
577;SDS011;275;48.492;9.214;2023-08-30T11:42:25;4.07;;;3.03;;
577;SDS011;275;48.492;9.214;2023-08-30T11:44:53;4.40;;;2.90;;
577;SDS011;275;48.492;9.214;2023-08-30T11:47:20;4.83;;;3.30;;
577;SDS011;275;48.492;9.214;2023-08-30T11:49:49;5.10;;;3.33;;
577;SDS011;275;48.492;9.214;2023-08-30T11:52:18;5.57;;;2.77;;
577;SDS011;275;48.492;9.214;2023-08-30T11:54:46;4.20;;;3.10;;
577;SDS011;275;48.492;9.214;2023-08-30T11:57:14;4.00;;;2.73;;
577;SDS011;275;48.492;9.214;2023-08-30T11:59:41;5.63;;;3.10;;
577;SDS011;275;48.492;9.214;2023-08-30T12:02:11;3.90;;;2.70;;
577;SDS011;275;48.492;9.214;2023-08-30T12:04:42;4.70;;;2.90;;
577;SDS011;275;48.492;9.214;2023-08-30T12:07:10;5.30;;;3.10;;
577;SDS011;275;48.492;9.214;2023-08-30T12:09:47;4.40;;;2.70;;
577;SDS011;275;48.492;9.214;2023-08-30T12:12:14;4.90;;;2.93;;
577;SDS011;275;48.492;9.214;2023-08-30T12:14:41;4.57;;;3.00;;
577;SDS011;275;48.492;9.214;2023-08-30T12:17:10;3.60;;;2.60;;
577;SDS011;275;48.492;9.214;2023-08-30T12:19:37;5.30;;;3.07;;
577;SDS011;275;48.492;9.214;2023-08-30T12:22:05;4.10;;;2.70;;
577;SDS011;275;48.492;9.214;2023-08-30T12:24:42;5.20;;;2.63;;
577;SDS011;275;48.492;9.214;2023-08-30T12:27:09;4.20;;;2.50;;
577;SDS011;275;48.492;9.214;2023-08-30T12:29:37;4.30;;;3.07;;
577;SDS011;275;48.492;9.214;2023-08-30T12:32:05;3.90;;;2.90;;
577;SDS011;275;48.492;9.214;2023-08-30T12:34:33;4.30;;;2.70;;
577;SDS011;275;48.492;9.214;2023-08-30T12:37:02;3.70;;;2.73;;
577;SDS011;275;48.492;9.214;2023-08-30T12:39:29;7.23;;;2.80;;
577;SDS011;275;48.492;9.214;2023-08-30T12:41:56;4.50;;;3.40;;
577;SDS011;275;48.492;9.214;2023-08-30T12:44:22;4.20;;;2.97;;
577;SDS011;275;48.492;9.214;2023-08-30T12:46:49;4.13;;;2.80;;
577;SDS011;275;48.492;9.214;2023-08-30T12:49:16;5.60;;;2.90;;
577;SDS011;275;48.492;9.214;2023-08-30T12:51:44;4.63;;;2.83;;
577;SDS011;275;48.492;9.214;2023-08-30T12:54:11;3.80;;;2.80;;
577;SDS011;275;48.492;9.214;2023-08-30T12:56:38;5.50;;;3.00;;
577;SDS011;275;48.492;9.214;2023-08-30T12:59:05;3.97;;;2.50;;
577;SDS011;275;48.492;9.214;2023-08-30T13:01:32;3.50;;;2.30;;
577;SDS011;275;48.492;9.214;2023-08-30T13:03:58;4.10;;;2.60;;
577;SDS011;275;48.492;9.214;2023-08-30T13:06:25;3.80;;;2.27;;
577;SDS011;275;48.492;9.214;2023-08-30T13:08:53;3.80;;;2.00;;
577;SDS011;275;48.492;9.214;2023-08-30T13:11:20;5.33;;;2.20;;
577;SDS011;275;48.492;9.214;2023-08-30T13:13:47;6.30;;;2.00;;
577;SDS011;275;48.492;9.214;2023-08-30T13:16:14;3.13;;;2.00;;
577;SDS011;275;48.492;9.214;2023-08-30T13:18:40;3.90;;;1.90;;
577;SDS011;275;48.492;9.214;2023-08-30T13:21:07;3.70;;;2.33;;
577;SDS011;275;48.492;9.214;2023-08-30T13:23:34;4.23;;;2.33;;
577;SDS011;275;48.492;9.214;2023-08-30T13:26:02;3.40;;;1.93;;
577;SDS011;275;48.492;9.214;2023-08-30T13:28:29;3.40;;;2.20;;
577;SDS011;275;48.492;9.214;2023-08-30T13:30:56;6.13;;;2.10;;
577;SDS011;275;48.492;9.214;2023-08-30T13:33:23;3.70;;;2.37;;
577;SDS011;275;48.492;9.214;2023-08-30T13:35:50;3.40;;;2.30;;
577;SDS011;275;48.492;9.214;2023-08-30T13:38:17;4.20;;;2.30;;
577;SDS011;275;48.492;9.214;2023-08-30T13:40:44;4.00;;;2.00;;
577;SDS011;275;48.492;9.214;2023-08-30T13:43:12;7.83;;;2.27;;
577;SDS011;275;48.492;9.214;2023-08-30T13:45:39;7.00;;;2.50;;
577;SDS011;275;48.492;9.214;2023-08-30T13:48:06;3.70;;;2.10;;
577;SDS011;275;48.492;9.214;2023-08-30T13:50:40;3.63;;;2.40;;
577;SDS011;275;48.492;9.214;2023-08-30T13:53:07;3.83;;;2.67;;
577;SDS011;275;48.492;9.214;2023-08-30T13:55:35;5.50;;;2.60;;
577;SDS011;275;48.492;9.214;2023-08-30T13:58:02;5.07;;;3.00;;
577;SDS011;275;48.492;9.214;2023-08-30T14:00:31;5.43;;;3.00;;
577;SDS011;275;48.492;9.214;2023-08-30T14:02:57;5.47;;;2.43;;
577;SDS011;275;48.492;9.214;2023-08-30T14:05:24;4.97;;;2.40;;
577;SDS011;275;48.492;9.214;2023-08-30T14:07:51;4.27;;;2.20;;
577;SDS011;275;48.492;9.214;2023-08-30T14:10:18;3.40;;;1.87;;
577;SDS011;275;48.492;9.214;2023-08-30T14:12:45;4.60;;;2.30;;
577;SDS011;275;48.492;9.214;2023-08-30T14:15:12;3.73;;;2.37;;
577;SDS011;275;48.492;9.214;2023-08-30T14:17:41;3.43;;;2.00;;
577;SDS011;275;48.492;9.214;2023-08-30T14:20:08;4.93;;;4.00;;
577;SDS011;275;48.492;9.214;2023-08-30T14:22:36;4.30;;;3.10;;
577;SDS011;275;48.492;9.214;2023-08-30T14:25:03;3.53;;;2.43;;
577;SDS011;275;48.492;9.214;2023-08-30T14:27:30;3.50;;;1.90;;
577;SDS011;275;48.492;9.214;2023-08-30T14:29:57;4.93;;;2.20;;
577;SDS011;275;48.492;9.214;2023-08-30T14:32:25;3.60;;;2.40;;
577;SDS011;275;48.492;9.214;2023-08-30T14:34:53;4.20;;;2.30;;
577;SDS011;275;48.492;9.214;2023-08-30T14:37:20;6.53;;;2.67;;
577;SDS011;275;48.492;9.214;2023-08-30T14:39:47;4.97;;;3.80;;
577;SDS011;275;48.492;9.214;2023-08-30T14:42:14;8.10;;;5.60;;
577;SDS011;275;48.492;9.214;2023-08-30T14:44:40;5.30;;;4.20;;
577;SDS011;275;48.492;9.214;2023-08-30T14:47:07;3.80;;;2.37;;
577;SDS011;275;48.492;9.214;2023-08-30T14:49:34;3.23;;;1.90;;
577;SDS011;275;48.492;9.214;2023-08-30T14:52:03;9.57;;;6.47;;
577;SDS011;275;48.492;9.214;2023-08-30T14:54:29;12.60;;;8.00;;
577;SDS011;275;48.492;9.214;2023-08-30T14:56:56;4.60;;;3.60;;
577;SDS011;275;48.492;9.214;2023-08-30T14:59:23;3.90;;;2.67;;
577;SDS011;275;48.492;9.214;2023-08-30T15:01:50;4.37;;;3.00;;
577;SDS011;275;48.492;9.214;2023-08-30T15:04:17;3.40;;;2.30;;
577;SDS011;275;48.492;9.214;2023-08-30T15:06:44;7.53;;;4.67;;
577;SDS011;275;48.492;9.214;2023-08-30T15:09:12;4.73;;;3.00;;
577;SDS011;275;48.492;9.214;2023-08-30T15:11:41;3.93;;;3.27;;
577;SDS011;275;48.492;9.214;2023-08-30T15:14:08;4.40;;;3.57;;
577;SDS011;275;48.492;9.214;2023-08-30T15:16:35;4.50;;;2.77;;
577;SDS011;275;48.492;9.214;2023-08-30T15:19:02;5.40;;;2.83;;
577;SDS011;275;48.492;9.214;2023-08-30T15:21:29;3.80;;;3.00;;
577;SDS011;275;48.492;9.214;2023-08-30T15:23:55;6.63;;;2.73;;
577;SDS011;275;48.492;9.214;2023-08-30T15:26:24;5.20;;;3.57;;
577;SDS011;275;48.492;9.214;2023-08-30T15:28:50;6.13;;;5.17;;
577;SDS011;275;48.492;9.214;2023-08-30T15:31:17;4.10;;;2.53;;
577;SDS011;275;48.492;9.214;2023-08-30T15:33:44;4.37;;;3.47;;
577;SDS011;275;48.492;9.214;2023-08-30T15:36:11;5.10;;;3.33;;